sensor_id;sensor_type;location;lat;lon;timestamp;P1;durP1;ratioP1;P2;durP2;ratioP2
48205;SDS011;33995;48.202;16.260;2024-02-26T00:01:13;5.60;;;3.40;;
48205;SDS011;33995;48.202;16.260;2024-02-26T00:03:40;5.20;;;3.30;;
48205;SDS011;33995;48.202;16.260;2024-02-26T00:06:08;4.13;;;3.03;;
48205;SDS011;33995;48.202;16.260;2024-02-26T00:08:35;4.73;;;3.07;;
48205;SDS011;33995;48.202;16.260;2024-02-26T00:11:03;5.40;;;3.50;;
48205;SDS011;33995;48.202;16.260;2024-02-26T00:13:30;5.30;;;3.20;;
48205;SDS011;33995;48.202;16.260;2024-02-26T00:15:57;5.30;;;3.50;;
48205;SDS011;33995;48.202;16.260;2024-02-26T00:18:24;4.97;;;3.60;;
48205;SDS011;33995;48.202;16.260;2024-02-26T00:20:51;5.87;;;3.60;;
48205;SDS011;33995;48.202;16.260;2024-02-26T00:23:18;6.47;;;3.17;;
48205;SDS011;33995;48.202;16.260;2024-02-26T00:25:45;4.50;;;3.10;;
48205;SDS011;33995;48.202;16.260;2024-02-26T00:28:12;4.10;;;3.20;;
48205;SDS011;33995;48.202;16.260;2024-02-26T00:30:40;4.60;;;3.13;;
48205;SDS011;33995;48.202;16.260;2024-02-26T00:33:07;4.13;;;3.20;;
48205;SDS011;33995;48.202;16.260;2024-02-26T00:35:34;5.97;;;3.40;;
48205;SDS011;33995;48.202;16.260;2024-02-26T00:38:01;5.83;;;3.53;;
48205;SDS011;33995;48.202;16.260;2024-02-26T00:40:29;5.33;;;3.70;;
48205;SDS011;33995;48.202;16.260;2024-02-26T00:42:56;6.73;;;3.43;;
48205;SDS011;33995;48.202;16.260;2024-02-26T00:45:23;4.33;;;3.47;;
48205;SDS011;33995;48.202;16.260;2024-02-26T00:47:50;4.13;;;3.67;;
48205;SDS011;33995;48.202;16.260;2024-02-26T00:50:17;4.03;;;3.57;;
48205;SDS011;33995;48.202;16.260;2024-02-26T00:52:44;6.63;;;3.87;;
48205;SDS011;33995;48.202;16.260;2024-02-26T00:55:11;5.50;;;4.00;;
48205;SDS011;33995;48.202;16.260;2024-02-26T00:57:38;5.30;;;3.90;;
48205;SDS011;33995;48.202;16.260;2024-02-26T01:00:07;5.13;;;3.70;;
48205;SDS011;33995;48.202;16.260;2024-02-26T01:02:37;4.87;;;4.10;;
48205;SDS011;33995;48.202;16.260;2024-02-26T01:05:05;6.73;;;3.70;;
48205;SDS011;33995;48.202;16.260;2024-02-26T01:07:32;7.60;;;4.03;;
48205;SDS011;33995;48.202;16.260;2024-02-26T01:10:02;4.60;;;3.67;;
48205;SDS011;33995;48.202;16.260;2024-02-26T01:12:30;5.67;;;3.87;;
48205;SDS011;33995;48.202;16.260;2024-02-26T01:14:57;6.40;;;4.10;;
48205;SDS011;33995;48.202;16.260;2024-02-26T01:17:24;5.40;;;4.07;;
48205;SDS011;33995;48.202;16.260;2024-02-26T01:19:51;5.43;;;3.90;;
48205;SDS011;33995;48.202;16.260;2024-02-26T01:22:20;5.57;;;4.20;;
48205;SDS011;33995;48.202;16.260;2024-02-26T01:24:47;5.87;;;4.10;;
48205;SDS011;33995;48.202;16.260;2024-02-26T01:27:14;5.13;;;4.53;;
48205;SDS011;33995;48.202;16.260;2024-02-26T01:29:42;6.13;;;4.30;;
48205;SDS011;33995;48.202;16.260;2024-02-26T01:32:09;8.17;;;4.50;;
48205;SDS011;33995;48.202;16.260;2024-02-26T01:34:36;5.67;;;4.07;;
48205;SDS011;33995;48.202;16.260;2024-02-26T01:37:04;5.40;;;3.83;;
48205;SDS011;33995;48.202;16.260;2024-02-26T01:39:30;6.33;;;4.17;;
48205;SDS011;33995;48.202;16.260;2024-02-26T01:41:57;5.83;;;3.97;;
48205;SDS011;33995;48.202;16.260;2024-02-26T01:44:26;6.03;;;4.10;;
48205;SDS011;33995;48.202;16.260;2024-02-26T01:46:53;6.03;;;4.17;;
48205;SDS011;33995;48.202;16.260;2024-02-26T01:49:20;5.13;;;3.97;;
48205;SDS011;33995;48.202;16.260;2024-02-26T01:51:48;4.97;;;3.97;;
48205;SDS011;33995;48.202;16.260;2024-02-26T01:54:15;6.87;;;4.40;;
48205;SDS011;33995;48.202;16.260;2024-02-26T01:56:46;6.20;;;3.97;;
48205;SDS011;33995;48.202;16.260;2024-02-26T01:59:13;4.90;;;3.63;;
48205;SDS011;33995;48.202;16.260;2024-02-26T02:01:41;5.23;;;3.70;;
48205;SDS011;33995;48.202;16.260;2024-02-26T02:04:12;6.23;;;4.20;;
48205;SDS011;33995;48.202;16.260;2024-02-26T02:06:41;5.47;;;3.63;;
48205;SDS011;33995;48.202;16.260;2024-02-26T02:09:09;7.30;;;4.70;;
48205;SDS011;33995;48.202;16.260;2024-02-26T02:11:36;6.30;;;3.97;;
48205;SDS011;33995;48.202;16.260;2024-02-26T02:14:04;5.20;;;4.07;;
48205;SDS011;33995;48.202;16.260;2024-02-26T02:16:31;6.30;;;4.40;;
48205;SDS011;33995;48.202;16.260;2024-02-26T02:18:58;6.50;;;4.53;;
48205;SDS011;33995;48.202;16.260;2024-02-26T02:21:25;6.23;;;4.07;;
48205;SDS011;33995;48.202;16.260;2024-02-26T02:23:52;5.67;;;3.87;;
48205;SDS011;33995;48.202;16.260;2024-02-26T02:26:19;6.40;;;4.50;;
48205;SDS011;33995;48.202;16.260;2024-02-26T02:28:47;4.87;;;4.10;;
48205;SDS011;33995;48.202;16.260;2024-02-26T02:31:15;6.43;;;4.50;;
48205;SDS011;33995;48.202;16.260;2024-02-26T02:33:45;6.53;;;4.77;;
48205;SDS011;33995;48.202;16.260;2024-02-26T02:36:12;4.80;;;4.30;;
48205;SDS011;33995;48.202;16.260;2024-02-26T02:38:48;6.97;;;4.83;;
48205;SDS011;33995;48.202;16.260;2024-02-26T02:41:18;6.93;;;4.67;;
48205;SDS011;33995;48.202;16.260;2024-02-26T02:43:45;7.57;;;5.10;;
48205;SDS011;33995;48.202;16.260;2024-02-26T02:46:12;6.00;;;5.10;;
48205;SDS011;33995;48.202;16.260;2024-02-26T02:48:41;7.20;;;5.30;;
48205;SDS011;33995;48.202;16.260;2024-02-26T02:51:08;7.20;;;6.07;;
48205;SDS011;33995;48.202;16.260;2024-02-26T02:53:35;8.27;;;5.80;;
48205;SDS011;33995;48.202;16.260;2024-02-26T02:56:02;8.30;;;5.50;;
48205;SDS011;33995;48.202;16.260;2024-02-26T02:58:30;7.83;;;6.10;;
48205;SDS011;33995;48.202;16.260;2024-02-26T03:00:57;7.87;;;5.60;;
48205;SDS011;33995;48.202;16.260;2024-02-26T03:03:26;7.97;;;5.60;;
48205;SDS011;33995;48.202;16.260;2024-02-26T03:05:55;7.87;;;5.43;;
48205;SDS011;33995;48.202;16.260;2024-02-26T03:08:22;7.07;;;5.50;;
48205;SDS011;33995;48.202;16.260;2024-02-26T03:10:50;7.97;;;5.53;;
48205;SDS011;33995;48.202;16.260;2024-02-26T03:13:17;6.27;;;4.73;;
48205;SDS011;33995;48.202;16.260;2024-02-26T03:15:44;5.13;;;4.27;;
48205;SDS011;33995;48.202;16.260;2024-02-26T03:18:11;5.83;;;4.00;;
48205;SDS011;33995;48.202;16.260;2024-02-26T03:20:38;7.67;;;4.07;;
48205;SDS011;33995;48.202;16.260;2024-02-26T03:23:05;4.30;;;3.30;;
48205;SDS011;33995;48.202;16.260;2024-02-26T03:25:32;5.03;;;3.80;;
48205;SDS011;33995;48.202;16.260;2024-02-26T03:27:59;6.10;;;4.00;;
48205;SDS011;33995;48.202;16.260;2024-02-26T03:30:26;6.53;;;4.10;;
48205;SDS011;33995;48.202;16.260;2024-02-26T03:32:53;6.47;;;3.97;;
48205;SDS011;33995;48.202;16.260;2024-02-26T03:35:21;4.93;;;4.20;;
48205;SDS011;33995;48.202;16.260;2024-02-26T03:37:47;4.37;;;3.67;;
48205;SDS011;33995;48.202;16.260;2024-02-26T03:40:16;4.80;;;3.73;;
48205;SDS011;33995;48.202;16.260;2024-02-26T03:42:45;4.20;;;3.60;;
48205;SDS011;33995;48.202;16.260;2024-02-26T03:45:12;6.43;;;3.80;;
48205;SDS011;33995;48.202;16.260;2024-02-26T03:47:39;5.67;;;3.80;;
48205;SDS011;33995;48.202;16.260;2024-02-26T03:50:07;4.77;;;3.63;;
48205;SDS011;33995;48.202;16.260;2024-02-26T03:52:34;5.63;;;3.70;;
48205;SDS011;33995;48.202;16.260;2024-02-26T03:55:01;4.30;;;3.67;;
48205;SDS011;33995;48.202;16.260;2024-02-26T03:57:28;5.53;;;3.70;;
48205;SDS011;33995;48.202;16.260;2024-02-26T03:59:55;6.07;;;3.53;;
48205;SDS011;33995;48.202;16.260;2024-02-26T04:02:25;4.73;;;3.90;;
48205;SDS011;33995;48.202;16.260;2024-02-26T04:04:53;6.53;;;3.90;;
48205;SDS011;33995;48.202;16.260;2024-02-26T04:07:20;4.80;;;3.53;;
48205;SDS011;33995;48.202;16.260;2024-02-26T04:09:47;5.27;;;3.87;;
48205;SDS011;33995;48.202;16.260;2024-02-26T04:12:14;5.47;;;4.10;;
48205;SDS011;33995;48.202;16.260;2024-02-26T04:14:44;6.20;;;4.33;;
48205;SDS011;33995;48.202;16.260;2024-02-26T04:17:11;4.30;;;3.80;;
48205;SDS011;33995;48.202;16.260;2024-02-26T04:19:40;4.73;;;3.53;;
48205;SDS011;33995;48.202;16.260;2024-02-26T04:22:07;4.93;;;3.67;;
48205;SDS011;33995;48.202;16.260;2024-02-26T04:24:35;5.07;;;4.00;;
48205;SDS011;33995;48.202;16.260;2024-02-26T04:27:03;5.30;;;3.90;;
48205;SDS011;33995;48.202;16.260;2024-02-26T04:29:30;6.17;;;4.00;;
48205;SDS011;33995;48.202;16.260;2024-02-26T04:31:57;5.03;;;3.90;;
48205;SDS011;33995;48.202;16.260;2024-02-26T04:34:24;6.00;;;4.70;;
48205;SDS011;33995;48.202;16.260;2024-02-26T04:36:51;6.60;;;3.83;;
48205;SDS011;33995;48.202;16.260;2024-02-26T04:39:18;4.77;;;4.03;;
48205;SDS011;33995;48.202;16.260;2024-02-26T04:41:45;4.63;;;3.73;;
48205;SDS011;33995;48.202;16.260;2024-02-26T04:44:12;6.70;;;4.30;;
48205;SDS011;33995;48.202;16.260;2024-02-26T04:46:39;7.07;;;4.20;;
48205;SDS011;33995;48.202;16.260;2024-02-26T04:49:06;6.80;;;4.37;;
48205;SDS011;33995;48.202;16.260;2024-02-26T04:51:33;5.27;;;3.80;;
48205;SDS011;33995;48.202;16.260;2024-02-26T04:54:00;4.10;;;3.70;;
48205;SDS011;33995;48.202;16.260;2024-02-26T04:56:27;5.90;;;3.90;;
48205;SDS011;33995;48.202;16.260;2024-02-26T04:58:54;7.33;;;3.90;;
48205;SDS011;33995;48.202;16.260;2024-02-26T05:01:21;6.67;;;4.57;;
48205;SDS011;33995;48.202;16.260;2024-02-26T05:03:48;5.00;;;4.30;;
48205;SDS011;33995;48.202;16.260;2024-02-26T05:06:16;5.57;;;3.90;;
48205;SDS011;33995;48.202;16.260;2024-02-26T05:08:43;5.83;;;4.67;;
48205;SDS011;33995;48.202;16.260;2024-02-26T05:11:10;5.03;;;4.43;;
48205;SDS011;33995;48.202;16.260;2024-02-26T05:13:38;6.00;;;4.40;;
48205;SDS011;33995;48.202;16.260;2024-02-26T05:16:05;5.87;;;4.20;;
48205;SDS011;33995;48.202;16.260;2024-02-26T05:18:32;5.50;;;4.50;;
48205;SDS011;33995;48.202;16.260;2024-02-26T05:20:59;5.93;;;4.70;;
48205;SDS011;33995;48.202;16.260;2024-02-26T05:23:26;5.70;;;4.40;;
48205;SDS011;33995;48.202;16.260;2024-02-26T05:25:53;5.23;;;4.03;;
48205;SDS011;33995;48.202;16.260;2024-02-26T05:28:20;5.93;;;4.80;;
48205;SDS011;33995;48.202;16.260;2024-02-26T05:30:47;4.77;;;4.10;;
48205;SDS011;33995;48.202;16.260;2024-02-26T05:33:14;5.93;;;4.40;;
48205;SDS011;33995;48.202;16.260;2024-02-26T05:35:44;4.63;;;4.10;;
48205;SDS011;33995;48.202;16.260;2024-02-26T05:38:11;5.73;;;4.60;;
48205;SDS011;33995;48.202;16.260;2024-02-26T05:40:38;6.30;;;4.80;;
48205;SDS011;33995;48.202;16.260;2024-02-26T05:43:05;6.33;;;5.43;;
48205;SDS011;33995;48.202;16.260;2024-02-26T05:45:35;5.93;;;5.23;;
48205;SDS011;33995;48.202;16.260;2024-02-26T05:48:02;6.17;;;4.50;;
48205;SDS011;33995;48.202;16.260;2024-02-26T05:50:30;8.83;;;4.77;;
48205;SDS011;33995;48.202;16.260;2024-02-26T05:52:57;7.10;;;5.20;;
48205;SDS011;33995;48.202;16.260;2024-02-26T05:55:23;5.67;;;4.60;;
48205;SDS011;33995;48.202;16.260;2024-02-26T05:57:50;5.60;;;4.27;;
48205;SDS011;33995;48.202;16.260;2024-02-26T06:00:18;6.23;;;4.40;;
48205;SDS011;33995;48.202;16.260;2024-02-26T06:02:45;6.97;;;4.20;;
48205;SDS011;33995;48.202;16.260;2024-02-26T06:05:12;5.80;;;4.40;;
48205;SDS011;33995;48.202;16.260;2024-02-26T06:07:39;6.20;;;4.63;;
48205;SDS011;33995;48.202;16.260;2024-02-26T06:10:06;7.03;;;4.53;;
48205;SDS011;33995;48.202;16.260;2024-02-26T06:12:36;6.80;;;4.90;;
48205;SDS011;33995;48.202;16.260;2024-02-26T06:15:03;8.03;;;4.63;;
48205;SDS011;33995;48.202;16.260;2024-02-26T06:17:31;8.00;;;5.27;;
48205;SDS011;33995;48.202;16.260;2024-02-26T06:19:58;6.23;;;4.80;;
48205;SDS011;33995;48.202;16.260;2024-02-26T06:22:29;5.93;;;4.53;;
48205;SDS011;33995;48.202;16.260;2024-02-26T06:24:56;4.87;;;4.30;;
48205;SDS011;33995;48.202;16.260;2024-02-26T06:27:23;6.57;;;4.63;;
48205;SDS011;33995;48.202;16.260;2024-02-26T06:29:50;5.80;;;4.73;;
48205;SDS011;33995;48.202;16.260;2024-02-26T06:32:20;5.40;;;4.57;;
48205;SDS011;33995;48.202;16.260;2024-02-26T06:34:49;7.10;;;5.53;;
48205;SDS011;33995;48.202;16.260;2024-02-26T06:37:16;10.30;;;6.80;;
48205;SDS011;33995;48.202;16.260;2024-02-26T06:39:43;10.63;;;7.97;;
48205;SDS011;33995;48.202;16.260;2024-02-26T06:42:10;5.77;;;5.17;;
48205;SDS011;33995;48.202;16.260;2024-02-26T06:44:38;5.77;;;5.00;;
48205;SDS011;33995;48.202;16.260;2024-02-26T06:47:05;7.87;;;5.27;;
48205;SDS011;33995;48.202;16.260;2024-02-26T06:49:32;7.40;;;5.07;;
48205;SDS011;33995;48.202;16.260;2024-02-26T06:51:59;8.20;;;5.33;;
48205;SDS011;33995;48.202;16.260;2024-02-26T06:54:26;5.97;;;4.93;;
48205;SDS011;33995;48.202;16.260;2024-02-26T06:56:53;6.13;;;5.37;;
48205;SDS011;33995;48.202;16.260;2024-02-26T06:59:20;6.60;;;5.57;;
48205;SDS011;33995;48.202;16.260;2024-02-26T07:01:47;6.57;;;5.00;;
48205;SDS011;33995;48.202;16.260;2024-02-26T07:04:14;6.20;;;5.20;;
48205;SDS011;33995;48.202;16.260;2024-02-26T07:06:41;7.10;;;5.40;;
48205;SDS011;33995;48.202;16.260;2024-02-26T07:09:10;7.27;;;5.47;;
48205;SDS011;33995;48.202;16.260;2024-02-26T07:11:38;7.03;;;5.20;;
48205;SDS011;33995;48.202;16.260;2024-02-26T07:14:09;6.03;;;5.40;;
48205;SDS011;33995;48.202;16.260;2024-02-26T07:16:36;6.10;;;5.37;;
48205;SDS011;33995;48.202;16.260;2024-02-26T07:19:04;9.53;;;7.17;;
48205;SDS011;33995;48.202;16.260;2024-02-26T07:21:32;11.87;;;8.80;;
48205;SDS011;33995;48.202;16.260;2024-02-26T07:24:00;11.40;;;8.77;;
48205;SDS011;33995;48.202;16.260;2024-02-26T07:26:27;6.70;;;5.57;;
48205;SDS011;33995;48.202;16.260;2024-02-26T07:28:56;7.83;;;5.13;;
48205;SDS011;33995;48.202;16.260;2024-02-26T07:31:23;6.63;;;5.27;;
48205;SDS011;33995;48.202;16.260;2024-02-26T07:33:50;6.73;;;5.27;;
48205;SDS011;33995;48.202;16.260;2024-02-26T07:36:18;7.93;;;5.07;;
48205;SDS011;33995;48.202;16.260;2024-02-26T07:38:45;6.03;;;5.00;;
48205;SDS011;33995;48.202;16.260;2024-02-26T07:41:12;7.00;;;5.50;;
48205;SDS011;33995;48.202;16.260;2024-02-26T07:43:39;5.90;;;5.00;;
48205;SDS011;33995;48.202;16.260;2024-02-26T07:46:07;8.17;;;4.90;;
48205;SDS011;33995;48.202;16.260;2024-02-26T07:48:34;5.83;;;5.20;;
48205;SDS011;33995;48.202;16.260;2024-02-26T07:51:01;7.63;;;4.90;;
48205;SDS011;33995;48.202;16.260;2024-02-26T07:53:29;7.53;;;5.20;;
48205;SDS011;33995;48.202;16.260;2024-02-26T07:55:57;7.20;;;5.10;;
48205;SDS011;33995;48.202;16.260;2024-02-26T07:58:24;5.70;;;5.10;;
48205;SDS011;33995;48.202;16.260;2024-02-26T08:00:50;7.87;;;4.90;;
48205;SDS011;33995;48.202;16.260;2024-02-26T08:03:17;6.20;;;4.83;;
48205;SDS011;33995;48.202;16.260;2024-02-26T08:05:45;6.40;;;5.03;;
48205;SDS011;33995;48.202;16.260;2024-02-26T08:08:15;8.67;;;4.97;;
48205;SDS011;33995;48.202;16.260;2024-02-26T08:10:42;6.23;;;5.03;;
48205;SDS011;33995;48.202;16.260;2024-02-26T08:13:09;7.40;;;5.10;;
48205;SDS011;33995;48.202;16.260;2024-02-26T08:15:36;6.63;;;4.90;;
48205;SDS011;33995;48.202;16.260;2024-02-26T08:18:06;7.70;;;5.57;;
48205;SDS011;33995;48.202;16.260;2024-02-26T08:20:33;5.93;;;5.27;;
48205;SDS011;33995;48.202;16.260;2024-02-26T08:23:00;7.00;;;5.40;;
48205;SDS011;33995;48.202;16.260;2024-02-26T08:25:27;7.03;;;5.57;;
48205;SDS011;33995;48.202;16.260;2024-02-26T08:27:54;14.17;;;12.70;;
48205;SDS011;33995;48.202;16.260;2024-02-26T08:30:21;40.67;;;26.73;;
48205;SDS011;33995;48.202;16.260;2024-02-26T08:32:49;72.70;;;45.33;;
48205;SDS011;33995;48.202;16.260;2024-02-26T08:35:18;20.53;;;18.33;;
48205;SDS011;33995;48.202;16.260;2024-02-26T08:37:46;7.60;;;6.90;;
48205;SDS011;33995;48.202;16.260;2024-02-26T08:40:14;7.10;;;6.13;;
48205;SDS011;33995;48.202;16.260;2024-02-26T08:42:41;7.17;;;6.47;;
48205;SDS011;33995;48.202;16.260;2024-02-26T08:45:08;8.13;;;6.47;;
48205;SDS011;33995;48.202;16.260;2024-02-26T08:47:36;8.60;;;7.57;;
48205;SDS011;33995;48.202;16.260;2024-02-26T08:50:03;13.07;;;9.57;;
48205;SDS011;33995;48.202;16.260;2024-02-26T08:52:31;11.90;;;10.67;;
48205;SDS011;33995;48.202;16.260;2024-02-26T08:54:59;9.17;;;7.80;;
48205;SDS011;33995;48.202;16.260;2024-02-26T08:57:26;7.70;;;6.40;;
48205;SDS011;33995;48.202;16.260;2024-02-26T08:59:54;7.70;;;6.90;;
48205;SDS011;33995;48.202;16.260;2024-02-26T09:02:23;7.07;;;6.37;;
48205;SDS011;33995;48.202;16.260;2024-02-26T09:04:51;7.30;;;6.50;;
48205;SDS011;33995;48.202;16.260;2024-02-26T09:07:20;7.30;;;6.33;;
48205;SDS011;33995;48.202;16.260;2024-02-26T09:09:48;10.03;;;6.60;;
48205;SDS011;33995;48.202;16.260;2024-02-26T09:12:15;7.03;;;6.33;;
48205;SDS011;33995;48.202;16.260;2024-02-26T09:14:42;6.67;;;5.80;;
48205;SDS011;33995;48.202;16.260;2024-02-26T09:17:10;5.83;;;5.23;;
48205;SDS011;33995;48.202;16.260;2024-02-26T09:19:38;7.13;;;5.20;;
48205;SDS011;33995;48.202;16.260;2024-02-26T09:22:05;5.90;;;5.30;;
48205;SDS011;33995;48.202;16.260;2024-02-26T09:24:33;6.00;;;5.40;;
48205;SDS011;33995;48.202;16.260;2024-02-26T09:27:00;6.20;;;5.50;;
48205;SDS011;33995;48.202;16.260;2024-02-26T09:29:27;5.70;;;5.07;;
48205;SDS011;33995;48.202;16.260;2024-02-26T09:31:54;6.27;;;4.67;;
48205;SDS011;33995;48.202;16.260;2024-02-26T09:34:21;5.30;;;4.53;;
48205;SDS011;33995;48.202;16.260;2024-02-26T09:36:48;5.10;;;4.60;;
48205;SDS011;33995;48.202;16.260;2024-02-26T09:39:21;4.83;;;4.07;;
48205;SDS011;33995;48.202;16.260;2024-02-26T09:41:48;4.87;;;3.97;;
48205;SDS011;33995;48.202;16.260;2024-02-26T09:44:20;4.73;;;3.60;;
48205;SDS011;33995;48.202;16.260;2024-02-26T09:46:47;4.77;;;3.60;;
48205;SDS011;33995;48.202;16.260;2024-02-26T09:49:21;4.47;;;3.10;;
48205;SDS011;33995;48.202;16.260;2024-02-26T09:51:51;5.03;;;3.00;;
48205;SDS011;33995;48.202;16.260;2024-02-26T09:54:20;3.73;;;3.03;;
48205;SDS011;33995;48.202;16.260;2024-02-26T09:56:48;4.03;;;2.90;;
48205;SDS011;33995;48.202;16.260;2024-02-26T09:59:29;4.03;;;2.70;;
48205;SDS011;33995;48.202;16.260;2024-02-26T10:02:11;5.70;;;2.60;;
48205;SDS011;33995;48.202;16.260;2024-02-26T10:04:40;2.90;;;2.70;;
48205;SDS011;33995;48.202;16.260;2024-02-26T10:07:11;4.70;;;2.80;;
48205;SDS011;33995;48.202;16.260;2024-02-26T10:09:40;4.33;;;2.80;;
48205;SDS011;33995;48.202;16.260;2024-02-26T10:12:08;5.57;;;2.67;;
48205;SDS011;33995;48.202;16.260;2024-02-26T10:14:38;3.90;;;2.60;;
48205;SDS011;33995;48.202;16.260;2024-02-26T10:17:08;4.20;;;2.73;;
48205;SDS011;33995;48.202;16.260;2024-02-26T10:19:35;4.57;;;2.47;;
48205;SDS011;33995;48.202;16.260;2024-02-26T10:22:05;2.93;;;2.30;;
48205;SDS011;33995;48.202;16.260;2024-02-26T10:24:32;2.80;;;2.40;;
48205;SDS011;33995;48.202;16.260;2024-02-26T10:27:01;3.83;;;2.27;;
48205;SDS011;33995;48.202;16.260;2024-02-26T10:29:29;2.90;;;2.33;;
48205;SDS011;33995;48.202;16.260;2024-02-26T10:31:56;3.70;;;2.40;;
48205;SDS011;33995;48.202;16.260;2024-02-26T10:34:23;2.83;;;2.40;;
48205;SDS011;33995;48.202;16.260;2024-02-26T10:36:51;3.13;;;2.20;;
48205;SDS011;33995;48.202;16.260;2024-02-26T10:39:20;4.30;;;2.40;;
48205;SDS011;33995;48.202;16.260;2024-02-26T10:41:48;3.77;;;2.37;;
48205;SDS011;33995;48.202;16.260;2024-02-26T10:44:16;3.03;;;2.30;;
48205;SDS011;33995;48.202;16.260;2024-02-26T10:46:46;2.50;;;2.30;;
48205;SDS011;33995;48.202;16.260;2024-02-26T10:49:17;3.00;;;2.30;;
48205;SDS011;33995;48.202;16.260;2024-02-26T10:51:52;4.00;;;2.97;;
48205;SDS011;33995;48.202;16.260;2024-02-26T10:54:21;4.13;;;2.80;;
48205;SDS011;33995;48.202;16.260;2024-02-26T10:56:53;3.97;;;2.67;;
48205;SDS011;33995;48.202;16.260;2024-02-26T10:59:22;4.90;;;3.00;;
48205;SDS011;33995;48.202;16.260;2024-02-26T11:01:49;2.73;;;2.50;;
48205;SDS011;33995;48.202;16.260;2024-02-26T11:04:17;3.90;;;2.70;;
48205;SDS011;33995;48.202;16.260;2024-02-26T11:06:45;4.10;;;2.00;;
48205;SDS011;33995;48.202;16.260;2024-02-26T11:09:14;3.40;;;2.50;;
48205;SDS011;33995;48.202;16.260;2024-02-26T11:11:42;6.67;;;2.17;;
48205;SDS011;33995;48.202;16.260;2024-02-26T11:14:11;3.27;;;2.30;;
48205;SDS011;33995;48.202;16.260;2024-02-26T11:16:39;5.73;;;2.40;;
48205;SDS011;33995;48.202;16.260;2024-02-26T11:19:09;3.80;;;2.40;;
48205;SDS011;33995;48.202;16.260;2024-02-26T11:21:39;2.70;;;2.30;;
48205;SDS011;33995;48.202;16.260;2024-02-26T11:24:10;3.17;;;2.27;;
48205;SDS011;33995;48.202;16.260;2024-02-26T11:26:43;2.97;;;2.33;;
48205;SDS011;33995;48.202;16.260;2024-02-26T11:29:16;2.40;;;1.80;;
48205;SDS011;33995;48.202;16.260;2024-02-26T11:31:47;3.60;;;1.80;;
48205;SDS011;33995;48.202;16.260;2024-02-26T11:34:15;3.00;;;1.87;;
48205;SDS011;33995;48.202;16.260;2024-02-26T11:36:44;4.03;;;1.90;;
48205;SDS011;33995;48.202;16.260;2024-02-26T11:39:12;1.83;;;1.50;;
48205;SDS011;33995;48.202;16.260;2024-02-26T11:41:43;2.57;;;1.40;;
48205;SDS011;33995;48.202;16.260;2024-02-26T11:44:10;2.33;;;1.50;;
48205;SDS011;33995;48.202;16.260;2024-02-26T11:46:41;2.53;;;1.33;;
48205;SDS011;33995;48.202;16.260;2024-02-26T11:51:57;2.67;;;1.60;;
48205;SDS011;33995;48.202;16.260;2024-02-26T11:54:37;1.93;;;1.50;;
48205;SDS011;33995;48.202;16.260;2024-02-26T12:00:10;2.80;;;1.77;;
48205;SDS011;33995;48.202;16.260;2024-02-26T12:05:18;2.23;;;1.67;;
48205;SDS011;33995;48.202;16.260;2024-02-26T12:07:48;2.40;;;1.60;;
48205;SDS011;33995;48.202;16.260;2024-02-26T12:10:23;3.83;;;3.40;;
48205;SDS011;33995;48.202;16.260;2024-02-26T12:12:59;6.13;;;4.23;;
48205;SDS011;33995;48.202;16.260;2024-02-26T12:15:31;5.40;;;2.83;;
48205;SDS011;33995;48.202;16.260;2024-02-26T12:18:00;2.63;;;1.80;;
48205;SDS011;33995;48.202;16.260;2024-02-26T12:20:29;2.23;;;1.50;;
48205;SDS011;33995;48.202;16.260;2024-02-26T12:22:56;2.43;;;1.60;;
48205;SDS011;33995;48.202;16.260;2024-02-26T12:25:28;3.27;;;1.87;;
48205;SDS011;33995;48.202;16.260;2024-02-26T12:27:57;2.23;;;1.50;;
48205;SDS011;33995;48.202;16.260;2024-02-26T12:30:24;2.90;;;1.50;;
48205;SDS011;33995;48.202;16.260;2024-02-26T12:32:59;2.10;;;1.80;;
48205;SDS011;33995;48.202;16.260;2024-02-26T12:35:27;2.83;;;1.80;;
48205;SDS011;33995;48.202;16.260;2024-02-26T12:37:55;2.53;;;2.20;;
48205;SDS011;33995;48.202;16.260;2024-02-26T12:40:22;3.33;;;2.07;;
48205;SDS011;33995;48.202;16.260;2024-02-26T12:42:49;2.93;;;1.87;;
48205;SDS011;33995;48.202;16.260;2024-02-26T12:45:16;2.63;;;1.80;;
48205;SDS011;33995;48.202;16.260;2024-02-26T12:47:44;2.87;;;1.63;;
48205;SDS011;33995;48.202;16.260;2024-02-26T12:50:18;1.93;;;1.70;;
48205;SDS011;33995;48.202;16.260;2024-02-26T12:52:46;3.03;;;2.27;;
48205;SDS011;33995;48.202;16.260;2024-02-26T12:55:18;5.27;;;3.30;;
48205;SDS011;33995;48.202;16.260;2024-02-26T12:57:47;4.07;;;3.10;;
48205;SDS011;33995;48.202;16.260;2024-02-26T13:00:16;3.00;;;2.23;;
48205;SDS011;33995;48.202;16.260;2024-02-26T13:02:48;2.87;;;2.37;;
48205;SDS011;33995;48.202;16.260;2024-02-26T13:05:17;3.90;;;3.30;;
48205;SDS011;33995;48.202;16.260;2024-02-26T13:07:46;4.17;;;3.00;;
48205;SDS011;33995;48.202;16.260;2024-02-26T13:10:13;2.70;;;2.37;;
48205;SDS011;33995;48.202;16.260;2024-02-26T13:12:43;3.50;;;2.30;;
48205;SDS011;33995;48.202;16.260;2024-02-26T13:15:13;4.07;;;2.73;;
48205;SDS011;33995;48.202;16.260;2024-02-26T13:17:43;4.60;;;3.20;;
48205;SDS011;33995;48.202;16.260;2024-02-26T13:20:13;5.27;;;4.60;;
48205;SDS011;33995;48.202;16.260;2024-02-26T13:23:02;6.93;;;4.30;;
48205;SDS011;33995;48.202;16.260;2024-02-26T13:25:31;4.63;;;3.80;;
48205;SDS011;33995;48.202;16.260;2024-02-26T13:28:08;2.73;;;2.33;;
48205;SDS011;33995;48.202;16.260;2024-02-26T13:30:40;2.70;;;2.10;;
48205;SDS011;33995;48.202;16.260;2024-02-26T13:33:11;3.20;;;1.70;;
48205;SDS011;33995;48.202;16.260;2024-02-26T13:35:39;3.60;;;1.70;;
48205;SDS011;33995;48.202;16.260;2024-02-26T13:38:06;2.53;;;1.83;;
48205;SDS011;33995;48.202;16.260;2024-02-26T13:40:34;3.23;;;1.80;;
48205;SDS011;33995;48.202;16.260;2024-02-26T13:43:01;2.77;;;1.97;;
48205;SDS011;33995;48.202;16.260;2024-02-26T13:45:29;2.10;;;1.90;;
48205;SDS011;33995;48.202;16.260;2024-02-26T13:48:04;2.83;;;2.03;;
48205;SDS011;33995;48.202;16.260;2024-02-26T13:50:32;3.40;;;2.10;;
48205;SDS011;33995;48.202;16.260;2024-02-26T13:52:59;2.60;;;1.83;;
48205;SDS011;33995;48.202;16.260;2024-02-26T13:55:26;2.50;;;1.70;;
48205;SDS011;33995;48.202;16.260;2024-02-26T13:57:55;2.30;;;1.70;;
48205;SDS011;33995;48.202;16.260;2024-02-26T14:00:23;3.67;;;1.77;;
48205;SDS011;33995;48.202;16.260;2024-02-26T14:02:53;3.67;;;2.57;;
48205;SDS011;33995;48.202;16.260;2024-02-26T14:05:20;3.20;;;2.20;;
48205;SDS011;33995;48.202;16.260;2024-02-26T14:07:47;2.90;;;1.97;;
48205;SDS011;33995;48.202;16.260;2024-02-26T14:10:18;3.90;;;2.17;;
48205;SDS011;33995;48.202;16.260;2024-02-26T14:12:45;2.53;;;2.20;;
48205;SDS011;33995;48.202;16.260;2024-02-26T14:15:13;3.17;;;2.10;;
48205;SDS011;33995;48.202;16.260;2024-02-26T14:17:40;3.03;;;2.30;;
48205;SDS011;33995;48.202;16.260;2024-02-26T14:20:07;3.70;;;1.80;;
48205;SDS011;33995;48.202;16.260;2024-02-26T14:22:35;2.50;;;1.73;;
48205;SDS011;33995;48.202;16.260;2024-02-26T14:25:05;1.87;;;1.60;;
48205;SDS011;33995;48.202;16.260;2024-02-26T14:27:35;2.70;;;1.60;;
48205;SDS011;33995;48.202;16.260;2024-02-26T14:30:03;2.07;;;1.57;;
48205;SDS011;33995;48.202;16.260;2024-02-26T14:32:30;4.67;;;1.53;;
48205;SDS011;33995;48.202;16.260;2024-02-26T14:35:01;2.10;;;1.57;;
48205;SDS011;33995;48.202;16.260;2024-02-26T14:37:29;1.70;;;1.40;;
48205;SDS011;33995;48.202;16.260;2024-02-26T14:39:56;2.33;;;1.50;;
48205;SDS011;33995;48.202;16.260;2024-02-26T14:42:23;2.33;;;1.60;;
48205;SDS011;33995;48.202;16.260;2024-02-26T14:44:50;2.70;;;1.90;;
48205;SDS011;33995;48.202;16.260;2024-02-26T14:47:17;2.63;;;1.70;;